sensor_id;sensor_type;location;lat;lon;timestamp;P1;durP1;ratioP1;P2;durP2;ratioP2
29414;SDS011;20303;48.302;11.914;2023-07-16T00:08:02;7.78;;;4.38;;
29414;SDS011;20303;48.302;11.914;2023-07-16T00:18:03;9.48;;;4.70;;
29414;SDS011;20303;48.302;11.914;2023-07-16T00:28:05;7.82;;;4.70;;
29414;SDS011;20303;48.302;11.914;2023-07-16T00:38:06;8.77;;;4.65;;
29414;SDS011;20303;48.302;11.914;2023-07-16T00:48:08;8.43;;;4.30;;
29414;SDS011;20303;48.302;11.914;2023-07-16T00:58:09;5.70;;;4.07;;
29414;SDS011;20303;48.302;11.914;2023-07-16T01:08:10;8.70;;;4.43;;
29414;SDS011;20303;48.302;11.914;2023-07-16T01:18:11;6.90;;;4.18;;
29414;SDS011;20303;48.302;11.914;2023-07-16T01:38:38;6.85;;;5.00;;
29414;SDS011;20303;48.302;11.914;2023-07-16T01:48:39;8.00;;;5.03;;
29414;SDS011;20303;48.302;11.914;2023-07-16T01:58:40;9.52;;;5.28;;
29414;SDS011;20303;48.302;11.914;2023-07-16T02:08:41;7.63;;;5.15;;
29414;SDS011;20303;48.302;11.914;2023-07-16T02:18:42;9.98;;;5.10;;
29414;SDS011;20303;48.302;11.914;2023-07-16T02:28:43;7.15;;;5.15;;
29414;SDS011;20303;48.302;11.914;2023-07-16T02:38:44;6.90;;;4.88;;
29414;SDS011;20303;48.302;11.914;2023-07-16T02:48:45;8.55;;;5.18;;
29414;SDS011;20303;48.302;11.914;2023-07-16T02:58:46;8.88;;;5.55;;
29414;SDS011;20303;48.302;11.914;2023-07-16T03:08:47;7.07;;;5.28;;
29414;SDS011;20303;48.302;11.914;2023-07-16T03:18:48;8.68;;;5.75;;
29414;SDS011;20303;48.302;11.914;2023-07-16T03:28:49;8.73;;;5.57;;
29414;SDS011;20303;48.302;11.914;2023-07-16T03:38:50;8.68;;;5.63;;
29414;SDS011;20303;48.302;11.914;2023-07-16T03:48:52;6.88;;;5.13;;
29414;SDS011;20303;48.302;11.914;2023-07-16T03:58:54;6.35;;;4.60;;
29414;SDS011;20303;48.302;11.914;2023-07-16T04:08:55;5.93;;;4.30;;
29414;SDS011;20303;48.302;11.914;2023-07-16T04:18:56;6.00;;;3.90;;
29414;SDS011;20303;48.302;11.914;2023-07-16T04:28:57;4.65;;;3.28;;
29414;SDS011;20303;48.302;11.914;2023-07-16T04:38:58;4.10;;;3.10;;
29414;SDS011;20303;48.302;11.914;2023-07-16T04:48:59;4.97;;;3.00;;
29414;SDS011;20303;48.302;11.914;2023-07-16T04:59:01;3.60;;;2.78;;
29414;SDS011;20303;48.302;11.914;2023-07-16T05:09:02;3.70;;;2.80;;
29414;SDS011;20303;48.302;11.914;2023-07-16T05:19:03;4.78;;;2.50;;
29414;SDS011;20303;48.302;11.914;2023-07-16T05:29:04;3.00;;;2.30;;
29414;SDS011;20303;48.302;11.914;2023-07-16T05:39:05;2.28;;;2.00;;
29414;SDS011;20303;48.302;11.914;2023-07-16T05:49:08;2.92;;;2.28;;
29414;SDS011;20303;48.302;11.914;2023-07-16T05:59:09;2.58;;;1.80;;
29414;SDS011;20303;48.302;11.914;2023-07-16T06:09:10;2.13;;;1.83;;
29414;SDS011;20303;48.302;11.914;2023-07-16T06:19:11;2.65;;;1.70;;
29414;SDS011;20303;48.302;11.914;2023-07-16T06:29:12;2.78;;;1.80;;
29414;SDS011;20303;48.302;11.914;2023-07-16T06:39:13;3.50;;;1.77;;
29414;SDS011;20303;48.302;11.914;2023-07-16T06:49:14;2.55;;;1.90;;
29414;SDS011;20303;48.302;11.914;2023-07-16T06:59:15;3.70;;;1.90;;
29414;SDS011;20303;48.302;11.914;2023-07-16T07:09:16;7.65;;;2.80;;
29414;SDS011;20303;48.302;11.914;2023-07-16T07:19:17;3.83;;;2.08;;
29414;SDS011;20303;48.302;11.914;2023-07-16T07:29:18;3.63;;;2.03;;
29414;SDS011;20303;48.302;11.914;2023-07-16T07:39:19;3.10;;;2.00;;
29414;SDS011;20303;48.302;11.914;2023-07-16T07:49:20;4.85;;;2.10;;
29414;SDS011;20303;48.302;11.914;2023-07-16T07:59:21;3.85;;;2.40;;
29414;SDS011;20303;48.302;11.914;2023-07-16T08:09:22;3.28;;;2.40;;
29414;SDS011;20303;48.302;11.914;2023-07-16T08:19:25;2.90;;;2.35;;
29414;SDS011;20303;48.302;11.914;2023-07-16T08:29:26;3.22;;;2.65;;
29414;SDS011;20303;48.302;11.914;2023-07-16T08:39:27;4.53;;;2.20;;
29414;SDS011;20303;48.302;11.914;2023-07-16T08:49:29;2.60;;;2.40;;
29414;SDS011;20303;48.302;11.914;2023-07-16T08:59:30;2.97;;;2.47;;
29414;SDS011;20303;48.302;11.914;2023-07-16T09:09:32;3.15;;;2.40;;
29414;SDS011;20303;48.302;11.914;2023-07-16T09:19:33;2.75;;;2.42;;
29414;SDS011;20303;48.302;11.914;2023-07-16T09:29:37;2.85;;;2.13;;
29414;SDS011;20303;48.302;11.914;2023-07-16T09:39:38;3.13;;;2.53;;
29414;SDS011;20303;48.302;11.914;2023-07-16T09:49:39;2.97;;;2.65;;
29414;SDS011;20303;48.302;11.914;2023-07-16T09:59:40;3.38;;;2.42;;
29414;SDS011;20303;48.302;11.914;2023-07-16T10:09:42;3.25;;;2.58;;
29414;SDS011;20303;48.302;11.914;2023-07-16T10:30:07;2.40;;;2.20;;
29414;SDS011;20303;48.302;11.914;2023-07-16T10:40:12;2.67;;;2.45;;
29414;SDS011;20303;48.302;11.914;2023-07-16T10:50:13;2.40;;;2.20;;
29414;SDS011;20303;48.302;11.914;2023-07-16T11:00:15;2.80;;;2.50;;
29414;SDS011;20303;48.302;11.914;2023-07-16T11:10:17;2.78;;;2.50;;
29414;SDS011;20303;48.302;11.914;2023-07-16T11:20:19;2.90;;;2.60;;
29414;SDS011;20303;48.302;11.914;2023-07-16T11:30:23;2.80;;;2.50;;
29414;SDS011;20303;48.302;11.914;2023-07-16T11:40:25;3.67;;;2.30;;
29414;SDS011;20303;48.302;11.914;2023-07-16T11:50:26;3.53;;;2.70;;
29414;SDS011;20303;48.302;11.914;2023-07-16T12:00:27;2.97;;;2.55;;
29414;SDS011;20303;48.302;11.914;2023-07-16T12:10:29;2.92;;;2.50;;
29414;SDS011;20303;48.302;11.914;2023-07-16T12:20:30;6.53;;;2.80;;
29414;SDS011;20303;48.302;11.914;2023-07-16T12:30:31;6.50;;;2.85;;
29414;SDS011;20303;48.302;11.914;2023-07-16T12:40:32;10.45;;;3.30;;
29414;SDS011;20303;48.302;11.914;2023-07-16T12:50:39;13.57;;;3.25;;
29414;SDS011;20303;48.302;11.914;2023-07-16T13:00:40;6.30;;;2.90;;
29414;SDS011;20303;48.302;11.914;2023-07-16T13:10:41;7.70;;;2.70;;
29414;SDS011;20303;48.302;11.914;2023-07-16T13:20:42;7.28;;;2.90;;
29414;SDS011;20303;48.302;11.914;2023-07-16T13:30:44;4.50;;;2.80;;
29414;SDS011;20303;48.302;11.914;2023-07-16T13:40:45;3.65;;;2.88;;
29414;SDS011;20303;48.302;11.914;2023-07-16T13:50:46;4.72;;;2.95;;
29414;SDS011;20303;48.302;11.914;2023-07-16T14:00:47;4.53;;;2.88;;
29414;SDS011;20303;48.302;11.914;2023-07-16T14:10:48;3.72;;;3.00;;
29414;SDS011;20303;48.302;11.914;2023-07-16T14:20:49;3.75;;;3.10;;
29414;SDS011;20303;48.302;11.914;2023-07-16T14:30:50;3.35;;;2.90;;
29414;SDS011;20303;48.302;11.914;2023-07-16T14:40:51;3.13;;;2.83;;
29414;SDS011;20303;48.302;11.914;2023-07-16T14:50:52;3.15;;;2.85;;
29414;SDS011;20303;48.302;11.914;2023-07-16T15:00:53;3.20;;;2.85;;
29414;SDS011;20303;48.302;11.914;2023-07-16T15:10:55;4.07;;;3.10;;
29414;SDS011;20303;48.302;11.914;2023-07-16T15:20:57;3.67;;;3.03;;
29414;SDS011;20303;48.302;11.914;2023-07-16T15:31:02;4.85;;;3.10;;
29414;SDS011;20303;48.302;11.914;2023-07-16T15:41:04;4.75;;;2.90;;
29414;SDS011;20303;48.302;11.914;2023-07-16T15:51:05;4.25;;;3.05;;
29414;SDS011;20303;48.302;11.914;2023-07-16T16:01:06;3.20;;;2.88;;
29414;SDS011;20303;48.302;11.914;2023-07-16T16:11:07;3.20;;;2.90;;
29414;SDS011;20303;48.302;11.914;2023-07-16T16:21:08;3.38;;;3.05;;
29414;SDS011;20303;48.302;11.914;2023-07-16T16:31:09;3.33;;;3.03;;
29414;SDS011;20303;48.302;11.914;2023-07-16T16:41:11;4.57;;;3.17;;
29414;SDS011;20303;48.302;11.914;2023-07-16T16:51:12;4.10;;;3.15;;
29414;SDS011;20303;48.302;11.914;2023-07-16T17:01:13;3.47;;;2.97;;
29414;SDS011;20303;48.302;11.914;2023-07-16T17:11:15;3.08;;;2.72;;
29414;SDS011;20303;48.302;11.914;2023-07-16T17:21:16;3.35;;;3.00;;
29414;SDS011;20303;48.302;11.914;2023-07-16T17:31:17;3.60;;;3.30;;
29414;SDS011;20303;48.302;11.914;2023-07-16T17:41:18;3.97;;;3.28;;
29414;SDS011;20303;48.302;11.914;2023-07-16T17:51:24;4.95;;;3.72;;
29414;SDS011;20303;48.302;11.914;2023-07-16T18:01:25;4.53;;;3.40;;
29414;SDS011;20303;48.302;11.914;2023-07-16T18:11:31;5.78;;;3.20;;
29414;SDS011;20303;48.302;11.914;2023-07-16T18:21:33;4.65;;;3.10;;
29414;SDS011;20303;48.302;11.914;2023-07-16T18:31:34;3.78;;;3.00;;
29414;SDS011;20303;48.302;11.914;2023-07-16T18:41:35;4.53;;;3.08;;
29414;SDS011;20303;48.302;11.914;2023-07-16T18:51:37;3.47;;;2.80;;
29414;SDS011;20303;48.302;11.914;2023-07-16T19:01:38;4.80;;;2.97;;
29414;SDS011;20303;48.302;11.914;2023-07-16T19:11:39;3.67;;;3.05;;
29414;SDS011;20303;48.302;11.914;2023-07-16T19:21:40;3.92;;;2.80;;
29414;SDS011;20303;48.302;11.914;2023-07-16T19:31:41;4.00;;;2.95;;
29414;SDS011;20303;48.302;11.914;2023-07-16T19:41:42;4.32;;;2.80;;
29414;SDS011;20303;48.302;11.914;2023-07-16T19:51:43;5.18;;;2.75;;
29414;SDS011;20303;48.302;11.914;2023-07-16T20:01:45;4.05;;;2.83;;
29414;SDS011;20303;48.302;11.914;2023-07-16T20:11:47;4.88;;;2.90;;
29414;SDS011;20303;48.302;11.914;2023-07-16T20:21:50;5.05;;;3.30;;
29414;SDS011;20303;48.302;11.914;2023-07-16T20:31:53;3.10;;;2.80;;
29414;SDS011;20303;48.302;11.914;2023-07-16T20:41:54;4.28;;;3.05;;
29414;SDS011;20303;48.302;11.914;2023-07-16T20:51:56;6.85;;;3.28;;
29414;SDS011;20303;48.302;11.914;2023-07-16T21:01:57;14.85;;;4.05;;
29414;SDS011;20303;48.302;11.914;2023-07-16T21:11:58;13.88;;;3.58;;
29414;SDS011;20303;48.302;11.914;2023-07-16T21:21:59;6.32;;;3.40;;
29414;SDS011;20303;48.302;11.914;2023-07-16T21:32:00;5.35;;;3.15;;
29414;SDS011;20303;48.302;11.914;2023-07-16T21:42:03;4.68;;;3.30;;
29414;SDS011;20303;48.302;11.914;2023-07-16T21:52:05;5.07;;;3.00;;
29414;SDS011;20303;48.302;11.914;2023-07-16T22:02:06;4.65;;;3.03;;
29414;SDS011;20303;48.302;11.914;2023-07-16T22:12:08;6.55;;;3.28;;
29414;SDS011;20303;48.302;11.914;2023-07-16T22:22:09;4.47;;;3.20;;
29414;SDS011;20303;48.302;11.914;2023-07-16T22:32:10;5.57;;;3.20;;
29414;SDS011;20303;48.302;11.914;2023-07-16T22:42:11;4.75;;;3.28;;
29414;SDS011;20303;48.302;11.914;2023-07-16T22:52:12;6.90;;;3.67;;
29414;SDS011;20303;48.302;11.914;2023-07-16T23:02:13;5.65;;;3.78;;
29414;SDS011;20303;48.302;11.914;2023-07-16T23:12:14;4.93;;;3.33;;
29414;SDS011;20303;48.302;11.914;2023-07-16T23:22:15;5.15;;;3.60;;
29414;SDS011;20303;48.302;11.914;2023-07-16T23:32:16;5.32;;;3.63;;
29414;SDS011;20303;48.302;11.914;2023-07-16T23:42:17;3.65;;;3.30;;
29414;SDS011;20303;48.302;11.914;2023-07-16T23:52:18;4.75;;;3.50;;
